createdAt,value
2018-11-13T00:00:32.690Z,57.00
2018-11-13T00:03:02.143Z,54.53
2018-11-13T00:05:30.879Z,58.00
2018-11-13T00:07:59.491Z,56.40
2018-11-13T00:10:28.048Z,60.50
2018-11-13T00:12:56.832Z,57.13
2018-11-13T00:15:25.506Z,62.63
2018-11-13T00:17:54.089Z,54.73
2018-11-13T00:20:22.748Z,62.13
2018-11-13T00:22:51.897Z,59.17
2018-11-13T00:25:21.360Z,59.90
2018-11-13T00:27:50.411Z,61.63
2018-11-13T00:30:20.657Z,58.50
2018-11-13T00:32:49.439Z,60.60
2018-11-13T00:35:18.792Z,63.83
2018-11-13T00:37:48.161Z,57.57
2018-11-13T00:40:17.666Z,67.17
2018-11-13T00:42:46.649Z,59.73
2018-11-13T00:45:15.269Z,62.30
2018-11-13T00:47:43.870Z,65.30
2018-11-13T00:50:14.438Z,64.73
2018-11-13T00:52:43.777Z,68.07
2018-11-13T00:55:12.457Z,63.20
2018-11-13T00:57:42.370Z,62.23
2018-11-13T01:00:14.876Z,67.43
2018-11-13T01:02:43.817Z,66.10
2018-11-13T01:05:14.335Z,63.47
2018-11-13T01:07:43.799Z,61.97
2018-11-13T01:10:14.514Z,59.87
2018-11-13T01:12:44.168Z,61.37
2018-11-13T01:15:14.848Z,67.03
2018-11-13T01:17:44.397Z,68.23
2018-11-13T01:20:13.379Z,65.00
2018-11-13T01:22:42.137Z,60.23
2018-11-13T01:25:11.967Z,60.87
2018-11-13T01:27:40.911Z,68.63
2018-11-13T01:30:10.783Z,66.40
2018-11-13T01:32:40.289Z,62.03
2018-11-13T01:35:13.578Z,64.93
2018-11-13T01:37:42.228Z,68.27
2018-11-13T01:40:16.270Z,64.60
2018-11-13T01:42:45.024Z,64.83
2018-11-13T01:45:15.028Z,66.73
2018-11-13T01:47:43.643Z,65.30
2018-11-13T01:50:12.578Z,60.40
2018-11-13T01:52:41.643Z,64.93
2018-11-13T01:55:13.117Z,62.40
2018-11-13T01:57:41.887Z,70.63
2018-11-13T02:00:16.464Z,69.30
2018-11-13T02:02:46.293Z,66.10
2018-11-13T02:05:14.903Z,67.13
2018-11-13T02:07:43.623Z,69.17
2018-11-13T02:10:12.195Z,66.17
2018-11-13T02:12:41.175Z,67.40
2018-11-13T02:15:10.374Z,71.77
2018-11-13T02:17:39.037Z,70.57
2018-11-13T02:20:10.738Z,68.30
2018-11-13T02:22:39.476Z,69.77
2018-11-13T02:25:10.120Z,65.97
2018-11-13T02:27:38.969Z,70.83
2018-11-13T02:30:09.076Z,72.87
2018-11-13T02:32:37.821Z,67.53
2018-11-13T02:35:07.390Z,70.87
2018-11-13T02:37:35.966Z,71.90
2018-11-13T02:40:04.653Z,71.80
2018-11-13T02:42:34.026Z,70.17
2018-11-13T02:45:02.669Z,76.37
2018-11-13T02:47:31.778Z,69.40
2018-11-13T02:50:00.559Z,70.47
2018-11-13T02:52:29.126Z,61.83
2018-11-13T02:54:57.708Z,69.07
2018-11-13T02:57:26.403Z,69.63
2018-11-13T02:59:54.993Z,64.67
2018-11-13T03:02:23.615Z,66.77
2018-11-13T03:04:53.048Z,72.40
2018-11-13T03:07:21.708Z,65.77
2018-11-13T03:09:50.275Z,73.90
2018-11-13T03:12:18.960Z,70.83
2018-11-13T03:14:49.861Z,64.97
2018-11-13T03:17:19.012Z,65.47
2018-11-13T03:19:47.629Z,66.37
2018-11-13T03:22:16.439Z,62.67
2018-11-13T03:24:45.341Z,60.50
2018-11-13T03:27:14.251Z,55.53
2018-11-13T03:29:43.068Z,65.87
2018-11-13T03:32:12.561Z,58.77
2018-11-13T03:34:42.130Z,54.63
2018-11-13T03:37:11.075Z,61.73
2018-11-13T03:39:39.792Z,57.80
2018-11-13T03:42:08.655Z,60.07
2018-11-13T03:44:37.536Z,57.57
2018-11-13T03:47:06.476Z,59.97
2018-11-13T03:49:35.063Z,59.20
2018-11-13T03:52:04.437Z,54.53
2018-11-13T03:54:33.085Z,54.57
2018-11-13T03:57:01.695Z,58.10
2018-11-13T03:59:30.381Z,62.70
2018-11-13T04:01:59.761Z,57.47
2018-11-13T04:04:28.406Z,60.03
2018-11-13T04:06:59.116Z,56.30
2018-11-13T04:09:29.223Z,58.73
2018-11-13T04:11:57.931Z,58.77
2018-11-13T04:14:26.727Z,61.40
2018-11-13T04:16:55.408Z,62.90
2018-11-13T04:19:24.009Z,62.17
2018-11-13T04:22:03.316Z,63.43
2018-11-13T04:24:32.134Z,59.93
2018-11-13T04:27:02.043Z,60.87
2018-11-13T04:29:31.192Z,65.07
2018-11-13T04:32:00.099Z,63.13
2018-11-13T04:34:28.698Z,69.13
2018-11-13T04:36:57.397Z,72.23
2018-11-13T04:39:26.023Z,63.57
2018-11-13T04:41:55.071Z,65.23
2018-11-13T04:44:24.320Z,65.27
2018-11-13T04:46:53.149Z,67.37
2018-11-13T04:49:22.274Z,71.50
2018-11-13T04:51:51.506Z,68.70
2018-11-13T04:54:21.832Z,71.13
2018-11-13T04:56:51.107Z,64.80
2018-11-13T04:59:19.843Z,70.23
2018-11-13T05:01:48.550Z,71.63
2018-11-13T05:04:17.335Z,73.40
2018-11-13T05:06:46.075Z,71.73
2018-11-13T05:09:15.309Z,74.77
2018-11-13T05:11:44.678Z,70.37
2018-11-13T05:14:13.938Z,70.93
2018-11-13T05:16:43.592Z,71.17
2018-11-13T05:19:12.307Z,69.83
2018-11-13T05:21:41.138Z,71.40
2018-11-13T05:24:10.310Z,75.03
2018-11-13T05:26:39.313Z,68.40
2018-11-13T05:29:07.958Z,67.27
2018-11-13T05:31:36.598Z,67.80
2018-11-13T05:34:05.662Z,65.80
2018-11-13T05:36:34.433Z,73.30
2018-11-13T05:39:03.100Z,69.93
2018-11-13T05:41:32.793Z,76.97
2018-11-13T05:44:01.445Z,70.70
2018-11-13T05:46:30.464Z,73.27
2018-11-13T05:48:59.779Z,74.97
2018-11-13T05:51:29.076Z,67.80
2018-11-13T05:53:57.843Z,72.53
2018-11-13T05:56:27.038Z,70.87
2018-11-13T05:58:57.213Z,70.93
2018-11-13T06:01:26.137Z,70.63
2018-11-13T06:03:55.119Z,73.13
2018-11-13T06:06:23.871Z,68.87
2018-11-13T06:08:53.779Z,66.87
2018-11-13T06:11:24.197Z,74.17
2018-11-13T06:13:54.031Z,72.80
2018-11-13T06:16:26.532Z,70.13
2018-11-13T06:18:57.301Z,66.03
2018-11-13T06:21:26.456Z,66.80
2018-11-13T06:23:55.005Z,68.73
2018-11-13T06:26:23.629Z,71.43
2018-11-13T06:28:52.156Z,66.23
2018-11-13T06:31:20.697Z,66.93
2018-11-13T06:33:49.458Z,63.23
2018-11-13T06:36:19.166Z,65.03
2018-11-13T06:38:50.705Z,67.53
2018-11-13T06:41:19.341Z,63.70
2018-11-13T06:43:48.585Z,65.07
2018-11-13T06:46:18.988Z,58.63
2018-11-13T06:48:47.603Z,53.63
2018-11-13T06:51:16.154Z,54.73
2018-11-13T06:53:56.186Z,55.97
2018-11-13T06:56:24.893Z,62.80
2018-11-13T06:58:53.398Z,59.73
2018-11-13T07:01:21.971Z,66.07
2018-11-13T07:03:50.533Z,57.20
2018-11-13T07:06:19.123Z,60.17
2018-11-13T07:08:47.656Z,62.90
2018-11-13T07:11:16.372Z,58.03
2018-11-13T07:13:45.279Z,62.27
2018-11-13T07:16:14.117Z,60.93
2018-11-13T07:18:42.650Z,61.63
2018-11-13T07:21:11.271Z,57.13
2018-11-13T07:23:40.047Z,56.77
2018-11-13T07:26:08.711Z,54.07
2018-11-13T07:28:37.312Z,59.43
2018-11-13T07:31:06.003Z,54.57
2018-11-13T07:33:34.651Z,59.73
2018-11-13T07:36:03.221Z,53.30
2018-11-13T07:38:31.771Z,57.17
2018-11-13T07:41:01.602Z,55.70
2018-11-13T07:43:35.141Z,56.53
2018-11-13T07:46:04.345Z,52.23
2018-11-13T07:48:32.883Z,58.07
2018-11-13T07:51:02.368Z,69.60
2018-11-13T07:53:37.983Z,60.90
2018-11-13T07:56:06.624Z,55.80
2018-11-13T07:58:38.739Z,57.87
2018-11-13T08:01:29.653Z,56.67
2018-11-13T08:04:09.137Z,53.53
2018-11-13T08:06:40.397Z,54.83
2018-11-13T08:09:10.511Z,56.13
2018-11-13T08:11:41.065Z,53.07
2018-11-13T08:14:09.716Z,56.10
2018-11-13T08:16:38.236Z,53.80
2018-11-13T08:19:06.790Z,52.23
2018-11-13T08:21:35.940Z,49.90
2018-11-13T08:24:04.526Z,53.10
2018-11-13T08:26:33.151Z,50.57
2018-11-13T08:29:01.783Z,52.27
2018-11-13T08:31:30.486Z,50.30
2018-11-13T08:33:59.170Z,49.20
2018-11-13T08:36:28.406Z,46.50
2018-11-13T08:38:58.833Z,51.40
2018-11-13T08:41:32.020Z,48.63
2018-11-13T08:44:00.683Z,47.20
2018-11-13T08:46:29.428Z,48.57
2018-11-13T08:48:59.481Z,44.63
2018-11-13T08:51:30.469Z,44.27
2018-11-13T08:53:59.045Z,50.50
2018-11-13T08:56:27.691Z,42.93
2018-11-13T08:58:56.716Z,44.17
2018-11-13T09:01:25.625Z,42.93
2018-11-13T09:03:54.286Z,44.77
2018-11-13T09:06:22.861Z,43.47
2018-11-13T09:08:51.507Z,39.50
2018-11-13T09:11:20.769Z,40.87
2018-11-13T09:13:50.788Z,43.70
2018-11-13T09:16:20.285Z,42.63
2018-11-13T09:18:48.937Z,41.70
2018-11-13T09:21:17.557Z,38.90
2018-11-13T09:23:47.332Z,38.20
2018-11-13T09:26:16.473Z,38.17
2018-11-13T09:28:45.716Z,38.10
2018-11-13T09:31:14.367Z,39.67
2018-11-13T09:33:42.939Z,40.10
2018-11-13T09:36:12.352Z,38.47
2018-11-13T09:38:40.961Z,41.17
2018-11-13T09:41:09.573Z,36.67
2018-11-13T09:43:38.402Z,35.77
2018-11-13T09:46:07.113Z,37.67
2018-11-13T09:48:35.796Z,36.40
2018-11-13T09:51:04.904Z,36.23
2018-11-13T09:53:33.566Z,38.90
2018-11-13T09:56:02.053Z,32.07
2018-11-13T09:58:30.535Z,26.53
2018-11-13T10:00:59.250Z,27.07
2018-11-13T10:03:28.310Z,29.60
2018-11-13T10:05:56.263Z,23.17
2018-11-13T10:08:24.857Z,24.17
2018-11-13T10:10:53.372Z,21.03
2018-11-13T10:13:22.283Z,24.07
2018-11-13T10:15:50.806Z,21.10
2018-11-13T10:18:19.726Z,21.20
2018-11-13T10:20:48.108Z,19.93
2018-11-13T10:23:16.936Z,21.60
2018-11-13T10:25:45.528Z,21.03
2018-11-13T10:28:14.276Z,21.03
2018-11-13T10:30:43.087Z,21.50
2018-11-13T10:33:11.844Z,23.10
2018-11-13T10:35:40.932Z,26.43
2018-11-13T10:38:09.493Z,22.37
2018-11-13T10:40:38.223Z,22.90
2018-11-13T10:43:06.825Z,26.73
2018-11-13T10:45:35.320Z,24.87
2018-11-13T10:48:03.925Z,25.53
2018-11-13T10:50:32.531Z,26.27
2018-11-13T10:53:02.154Z,25.50
2018-11-13T10:55:31.380Z,21.63
2018-11-13T10:58:00.023Z,22.67
2018-11-13T11:00:32.828Z,23.10
2018-11-13T11:03:06.845Z,24.60
2018-11-13T11:05:35.450Z,27.40
2018-11-13T11:08:05.228Z,25.63
2018-11-13T11:10:33.961Z,24.47
2018-11-13T11:13:03.976Z,25.97
2018-11-13T11:15:32.458Z,22.57
2018-11-13T11:18:01.040Z,27.13
2018-11-13T11:20:30.326Z,25.33
2018-11-13T11:22:59.559Z,25.53
2018-11-13T11:25:28.396Z,26.97
2018-11-13T11:28:00.700Z,23.53
2018-11-13T11:30:36.263Z,22.63
2018-11-13T11:36:03.847Z,24.47
2018-11-13T11:38:35.821Z,23.70
2018-11-13T11:41:04.418Z,22.53
2018-11-13T11:43:34.376Z,24.13
2018-11-13T11:46:09.043Z,22.07
2018-11-13T11:48:38.372Z,22.50
2018-11-13T11:51:11.163Z,23.60
2018-11-13T11:53:42.670Z,23.50
2018-11-13T11:56:13.179Z,21.47
2018-11-13T11:58:44.566Z,19.87
2018-11-13T12:01:14.319Z,22.93
2018-11-13T12:03:43.014Z,23.37
2018-11-13T12:06:13.299Z,22.27
2018-11-13T12:15:39.157Z,19.63
2018-11-13T12:18:08.211Z,22.50
2018-11-13T12:20:36.870Z,18.17
2018-11-13T12:23:05.774Z,20.03
2018-11-13T12:25:34.460Z,21.70
2018-11-13T12:28:03.073Z,19.63
2018-11-13T12:30:32.431Z,20.50
2018-11-13T12:33:06.532Z,20.77
2018-11-13T12:35:35.286Z,20.37
2018-11-13T12:38:04.334Z,21.80
2018-11-13T12:40:37.403Z,20.33
2018-11-13T12:43:08.097Z,23.03
2018-11-13T12:45:37.886Z,20.03
2018-11-13T12:48:07.102Z,17.57
2018-11-13T12:50:45.476Z,18.77
2018-11-13T12:53:17.016Z,19.97
2018-11-13T12:55:47.294Z,19.87
2018-11-13T12:58:17.505Z,21.00
2018-11-13T13:00:47.108Z,17.53
2018-11-13T13:03:16.818Z,22.87
2018-11-13T13:05:46.289Z,19.60
2018-11-13T13:08:15.772Z,17.50
2018-11-13T13:10:52.811Z,21.70
2018-11-13T13:13:23.247Z,24.57
2018-11-13T13:15:55.810Z,20.93
2018-11-13T13:18:30.455Z,21.77
2018-11-13T13:21:12.459Z,20.23
2018-11-13T13:23:44.515Z,9.90
2018-11-13T13:26:13.366Z,10.40
2018-11-13T14:54:50.549Z,9.27
2018-11-13T14:57:20.561Z,8.87
2018-11-13T14:59:49.578Z,11.37
2018-11-13T15:02:19.296Z,16.27
2018-11-13T15:04:50.361Z,18.77
2018-11-13T15:07:22.841Z,11.93
2018-11-13T15:12:47.137Z,13.27
2018-11-13T15:15:16.543Z,15.57
2018-11-13T15:17:49.588Z,10.93
2018-11-13T15:20:19.317Z,12.23
2018-11-13T15:22:53.175Z,9.90
2018-11-13T15:25:27.160Z,12.80
2018-11-13T15:28:00.507Z,9.23
2018-11-13T15:30:31.018Z,10.03
2018-11-13T15:33:04.240Z,10.30
2018-11-13T15:35:33.388Z,8.97
2018-11-13T15:38:02.523Z,10.37
2018-11-13T15:40:32.388Z,14.53
2018-11-13T15:43:01.553Z,12.93
2018-11-13T15:45:30.854Z,12.40
2018-11-13T15:48:01.201Z,12.20
2018-11-13T15:50:32.507Z,12.57
2018-11-13T15:53:01.648Z,10.60
2018-11-13T15:55:31.341Z,12.33
2018-11-13T15:58:01.643Z,8.47
2018-11-13T16:00:38.341Z,10.63
2018-11-13T16:03:09.897Z,14.13
2018-11-13T16:05:42.105Z,11.23
2018-11-13T16:08:11.627Z,9.40
2018-11-13T16:10:40.760Z,9.80
2018-11-13T16:13:10.359Z,8.47
2018-11-13T16:15:40.646Z,8.50
2018-11-13T16:18:13.410Z,9.63
2018-11-13T16:20:43.130Z,6.27
2018-11-13T16:23:13.862Z,5.67
2018-11-13T16:25:44.041Z,5.67
2018-11-13T16:28:13.544Z,6.03
2018-11-13T16:30:44.552Z,5.60
2018-11-13T16:33:13.797Z,5.07
2018-11-13T16:35:43.439Z,6.67
2018-11-13T16:38:14.876Z,6.47
2018-11-13T16:40:45.450Z,4.03
2018-11-13T16:43:16.600Z,2.87
2018-11-13T16:45:45.912Z,2.90
2018-11-13T16:48:15.662Z,2.70
2018-11-13T16:50:47.496Z,4.37
2018-11-13T16:53:17.003Z,3.83
2018-11-13T16:55:51.973Z,3.20
2018-11-13T16:58:22.201Z,3.17
2018-11-13T17:00:51.985Z,2.63
2018-11-13T17:03:27.309Z,4.90
2018-11-13T17:05:58.164Z,5.07
2018-11-13T17:08:27.649Z,7.17
2018-11-13T17:10:58.519Z,3.97
2018-11-13T17:13:28.343Z,4.73
2018-11-13T17:15:57.823Z,3.63
2018-11-13T17:18:28.626Z,4.67
2018-11-13T17:21:01.282Z,4.73
2018-11-13T17:23:30.566Z,5.30
2018-11-13T17:25:59.692Z,5.77
2018-11-13T17:28:29.104Z,5.00
2018-11-13T17:31:00.076Z,7.67
2018-11-13T17:33:30.471Z,4.73
2018-11-13T17:36:01.011Z,6.93
2018-11-13T17:38:31.503Z,7.37
2018-11-13T17:41:00.096Z,8.27
2018-11-13T17:43:28.664Z,7.10
2018-11-13T17:45:58.026Z,6.03
2018-11-13T17:48:28.494Z,5.57
2018-11-13T17:51:05.979Z,6.30
2018-11-13T17:53:38.361Z,5.23
2018-11-13T17:56:07.427Z,6.50
2018-11-13T17:58:40.271Z,6.80
2018-11-13T18:01:10.889Z,4.67
2018-11-13T18:03:39.646Z,6.17
2018-11-13T18:06:08.281Z,8.10
2018-11-13T18:08:36.976Z,5.03
2018-11-13T18:11:06.006Z,4.80
2018-11-13T18:13:34.757Z,7.73
2018-11-13T18:16:03.434Z,9.07
2018-11-13T18:18:31.948Z,11.43
2018-11-13T18:21:00.549Z,14.27
2018-11-13T18:23:29.218Z,13.27
2018-11-13T18:25:57.736Z,8.63
2018-11-13T18:28:26.521Z,6.23
2018-11-13T18:30:55.065Z,7.67
2018-11-13T18:33:23.660Z,5.33
2018-11-13T18:35:52.147Z,5.10
2018-11-13T18:38:20.847Z,4.67
2018-11-13T18:40:49.329Z,5.50
2018-11-13T18:43:17.921Z,5.07
2018-11-13T18:45:46.512Z,3.30
2018-11-13T18:48:15.027Z,3.23
2018-11-13T18:50:45.162Z,3.60
2018-11-13T18:53:14.894Z,4.00
2018-11-13T18:55:43.586Z,3.17
2018-11-13T18:58:12.425Z,3.07
2018-11-13T19:00:41.635Z,4.57
2018-11-13T19:03:11.449Z,3.20
2018-11-13T19:05:39.950Z,3.03
2018-11-13T19:08:08.824Z,2.77
2018-11-13T19:10:38.044Z,4.57
2018-11-13T19:13:08.623Z,3.73
2018-11-13T19:15:39.212Z,2.97
2018-11-13T19:18:08.292Z,3.90
2018-11-13T19:20:36.817Z,2.17
2018-11-13T19:23:05.574Z,2.87
2018-11-13T19:25:34.782Z,2.57
2018-11-13T19:28:03.472Z,5.03
2018-11-13T19:30:32.022Z,3.03
2018-11-13T19:33:00.640Z,3.43
2018-11-13T19:35:29.261Z,2.67
2018-11-13T19:37:57.704Z,2.37
2018-11-13T19:40:28.338Z,2.83
2018-11-13T19:42:57.874Z,2.70
2018-11-13T19:45:26.446Z,4.23
2018-11-13T19:47:54.987Z,3.63
2018-11-13T19:50:24.923Z,3.03
2018-11-13T19:52:53.605Z,3.73
2018-11-13T19:55:22.677Z,4.33
2018-11-13T19:57:51.442Z,2.60
2018-11-13T20:00:52.058Z,2.50
2018-11-13T20:03:20.612Z,2.57
2018-11-13T20:05:49.232Z,2.60
2018-11-13T20:08:17.798Z,3.90
2018-11-13T20:10:46.370Z,3.67
2018-11-13T20:13:14.809Z,6.13
2018-11-13T20:15:43.496Z,5.47
2018-11-13T20:18:12.014Z,14.17
2018-11-13T20:20:40.557Z,9.23
2018-11-13T20:23:16.273Z,7.37
2018-11-13T20:25:44.802Z,4.17
2018-11-13T20:28:13.335Z,5.60
2018-11-13T20:30:43.045Z,4.97
2018-11-13T20:33:11.473Z,4.03
2018-11-13T20:35:40.097Z,5.53
2018-11-13T20:38:08.919Z,5.23
2018-11-13T20:40:38.196Z,8.83
2018-11-13T20:43:09.161Z,35.20
2018-11-13T20:45:37.726Z,19.87
2018-11-13T20:48:06.500Z,25.57
2018-11-13T20:50:35.367Z,10.47
2018-11-13T20:53:03.988Z,13.90
2018-11-13T20:55:32.523Z,27.23
2018-11-13T20:58:01.109Z,14.07
2018-11-13T21:00:34.530Z,7.77
2018-11-13T21:03:03.289Z,31.97
2018-11-13T21:05:31.782Z,20.57
2018-11-13T21:08:00.413Z,23.50
2018-11-13T21:10:31.581Z,24.13
2018-11-13T21:13:00.541Z,36.40
2018-11-13T21:15:29.108Z,17.47
2018-11-13T21:17:57.652Z,14.90
2018-11-13T21:20:26.522Z,19.07
2018-11-13T21:22:54.870Z,18.37
2018-11-13T21:25:24.514Z,16.93
2018-11-13T21:27:54.975Z,11.67
2018-11-13T21:30:23.675Z,8.10
2018-11-13T21:32:52.905Z,10.33
2018-11-13T21:35:21.458Z,15.03
2018-11-13T21:37:51.263Z,14.27
2018-11-13T21:40:21.197Z,12.17
2018-11-13T21:42:50.610Z,10.00
2018-11-13T21:45:20.094Z,13.57
2018-11-13T21:47:49.175Z,12.80
2018-11-13T21:50:18.998Z,18.97
2018-11-13T21:52:47.695Z,11.20
2018-11-13T21:55:17.719Z,11.10
2018-11-13T21:57:46.452Z,9.70
2018-11-13T22:00:17.820Z,15.53
2018-11-13T22:02:53.734Z,12.37
2018-11-13T22:05:23.215Z,16.73
2018-11-13T22:07:51.706Z,15.60
2018-11-13T22:10:20.340Z,15.57
2018-11-13T22:12:48.884Z,13.20
2018-11-13T22:15:18.879Z,14.63
2018-11-13T22:17:47.411Z,12.83
2018-11-13T22:20:16.998Z,8.07
2018-11-13T22:22:45.712Z,13.07
2018-11-13T22:25:16.779Z,6.90
2018-11-13T22:27:46.640Z,13.27
2018-11-13T22:30:16.146Z,14.43
2018-11-13T22:32:45.252Z,5.33
2018-11-13T22:35:14.503Z,10.80
2018-11-13T22:37:43.022Z,8.60
2018-11-13T22:40:13.821Z,9.43
2018-11-13T22:42:42.375Z,10.47
2018-11-13T22:45:13.728Z,7.23
2018-11-13T22:47:42.387Z,8.53
2018-11-13T22:50:13.762Z,13.70
2018-11-13T22:52:42.972Z,6.63
2018-11-13T22:55:12.160Z,9.17
2018-11-13T22:57:41.288Z,6.80
2018-11-13T23:00:47.971Z,6.43
2018-11-13T23:03:17.615Z,4.80
2018-11-13T23:05:50.628Z,5.07
2018-11-13T23:08:20.667Z,10.77
2018-11-13T23:10:50.249Z,5.63
2018-11-13T23:13:18.747Z,10.20
2018-11-13T23:15:47.304Z,7.33
2018-11-13T23:18:15.993Z,7.07
2018-11-13T23:20:44.503Z,10.07
2018-11-13T23:23:13.129Z,9.17
2018-11-13T23:25:41.594Z,9.60
2018-11-13T23:28:10.314Z,14.43
2018-11-13T23:30:38.802Z,8.90
2018-11-13T23:33:07.650Z,6.77
2018-11-13T23:35:35.814Z,10.37
2018-11-13T23:38:04.361Z,6.43
2018-11-13T23:40:32.877Z,5.67
2018-11-13T23:43:01.333Z,5.43
2018-11-13T23:45:29.825Z,5.67
2018-11-13T23:47:58.529Z,6.40
2018-11-13T23:50:27.197Z,8.97
2018-11-13T23:52:55.716Z,8.83
2018-11-13T23:55:24.296Z,6.60
2018-11-13T23:57:52.823Z,7.73
